createdAt,value
2022-12-08T00:00:01.896Z,85.78
2022-12-08T00:02:30.314Z,85.58
2022-12-08T00:05:21.938Z,85.53
2022-12-08T00:08:29.071Z,86.00
2022-12-08T00:10:57.832Z,85.18
2022-12-08T00:13:25.826Z,85.30
2022-12-08T00:15:52.667Z,84.84
2022-12-08T00:18:21.836Z,85.57
2022-12-08T00:20:59.328Z,85.56
2022-12-08T00:23:29.524Z,86.42
2022-12-08T00:25:57.343Z,85.09
2022-12-08T00:28:24.265Z,85.52
2022-12-08T00:30:58.418Z,85.94
2022-12-08T00:33:25.274Z,86.49
2022-12-08T00:35:51.955Z,86.05
2022-12-08T00:38:21.408Z,85.74
2022-12-08T00:40:48.508Z,85.73
2022-12-08T00:43:17.731Z,86.01
2022-12-08T00:45:44.596Z,86.99
2022-12-08T00:48:13.727Z,86.37
2022-12-08T00:50:40.643Z,85.33
2022-12-08T00:53:09.737Z,84.78
2022-12-08T00:55:36.656Z,84.72
2022-12-08T00:58:03.832Z,84.43
2022-12-08T01:00:32.378Z,85.05
2022-12-08T01:02:59.642Z,84.53
2022-12-08T01:05:29.995Z,84.15
2022-12-08T01:08:07.460Z,85.15
2022-12-08T01:10:38.740Z,85.60
2022-12-08T01:13:05.642Z,86.27
2022-12-08T01:15:48.489Z,86.49
2022-12-08T01:18:19.346Z,86.67
2022-12-08T01:20:56.170Z,86.32
2022-12-08T01:23:23.638Z,85.89
2022-12-08T01:26:08.471Z,85.61
2022-12-08T01:28:38.853Z,86.10
2022-12-08T01:31:19.798Z,86.37
2022-12-08T01:33:48.917Z,85.90
2022-12-08T01:36:31.222Z,85.86
2022-12-08T01:39:08.525Z,85.62
2022-12-08T01:41:45.377Z,85.86
2022-12-08T01:44:12.752Z,85.63
2022-12-08T01:46:44.059Z,86.73
2022-12-08T01:49:21.663Z,86.81
2022-12-08T01:52:13.463Z,85.77
2022-12-08T01:54:48.686Z,85.71
2022-12-08T02:01:36.616Z,85.53
2022-12-08T02:07:45.020Z,86.49
2022-12-08T02:10:16.819Z,87.00
2022-12-08T02:12:43.855Z,87.12
2022-12-08T02:15:11.129Z,86.78
2022-12-08T02:17:40.893Z,87.17
2022-12-08T02:20:53.820Z,87.78
2022-12-08T02:23:35.053Z,87.05
2022-12-08T02:26:04.761Z,87.23
2022-12-08T02:28:51.380Z,87.07
2022-12-08T02:31:57.110Z,86.59
2022-12-08T02:34:36.232Z,86.59
2022-12-08T02:37:12.035Z,86.97
2022-12-08T02:39:59.984Z,86.98
2022-12-08T02:42:36.400Z,87.16
2022-12-08T02:45:14.802Z,85.71
2022-12-08T02:47:42.325Z,85.76
2022-12-08T02:50:12.408Z,84.90
2022-12-08T02:52:49.287Z,84.27
2022-12-08T02:55:44.828Z,84.94
2022-12-08T02:58:31.694Z,85.01
2022-12-08T03:01:29.405Z,85.23
2022-12-08T03:04:08.711Z,84.69
2022-12-08T03:07:05.332Z,84.44
2022-12-08T03:09:54.309Z,84.70
2022-12-08T03:12:48.791Z,84.13
2022-12-08T03:15:18.896Z,84.18
2022-12-08T03:17:54.925Z,84.41
2022-12-08T03:20:27.194Z,84.42
2022-12-08T03:22:58.586Z,83.63
2022-12-08T03:25:39.474Z,84.12
2022-12-08T03:28:06.567Z,84.52
2022-12-08T03:30:38.837Z,84.07
2022-12-08T03:33:30.563Z,83.87
2022-12-08T03:35:59.872Z,83.59
2022-12-08T03:38:26.761Z,83.46
2022-12-08T03:41:12.233Z,84.10
2022-12-08T03:43:39.043Z,83.32
2022-12-08T03:46:06.148Z,83.41
2022-12-08T03:48:32.979Z,83.98
2022-12-08T03:50:59.631Z,83.72
2022-12-08T03:53:26.703Z,83.99
2022-12-08T03:55:59.227Z,84.12
2022-12-08T03:58:25.976Z,84.15
2022-12-08T04:00:52.808Z,82.46
2022-12-08T04:03:22.608Z,83.07
2022-12-08T04:05:49.416Z,84.86
2022-12-08T04:08:19.342Z,83.31
2022-12-08T04:10:47.526Z,82.30
2022-12-08T04:13:20.736Z,82.35
2022-12-08T04:15:48.674Z,82.22
2022-12-08T04:18:17.379Z,82.23
2022-12-08T04:20:45.124Z,82.27
2022-12-08T04:23:15.876Z,81.97
2022-12-08T04:25:45.496Z,82.69
2022-12-08T04:28:13.173Z,81.89
2022-12-08T04:30:41.886Z,81.24
2022-12-08T04:33:08.579Z,81.74
2022-12-08T04:35:35.371Z,81.52
2022-12-08T04:38:07.882Z,83.05
2022-12-08T04:40:34.615Z,82.04
2022-12-08T04:43:01.371Z,82.13
2022-12-08T04:45:28.317Z,82.43
2022-12-08T04:48:07.771Z,83.17
2022-12-08T04:50:34.863Z,83.58
2022-12-08T04:53:04.319Z,83.67
2022-12-08T04:55:31.569Z,83.66
2022-12-08T04:57:58.324Z,83.08
2022-12-08T05:00:31.121Z,83.52
2022-12-08T05:03:02.955Z,82.48
2022-12-08T05:05:32.443Z,83.04
2022-12-08T05:07:59.292Z,83.32
2022-12-08T05:10:27.375Z,82.04
2022-12-08T05:12:54.204Z,82.35
2022-12-08T05:15:21.009Z,82.60
2022-12-08T05:17:47.802Z,83.19
2022-12-08T05:20:14.693Z,82.45
2022-12-08T05:22:41.478Z,81.95
2022-12-08T05:25:08.393Z,82.61
2022-12-08T05:27:35.774Z,81.46
2022-12-08T05:30:02.974Z,81.32
2022-12-08T05:32:32.600Z,80.96
2022-12-08T05:34:59.512Z,81.43
2022-12-08T05:37:26.291Z,80.97
2022-12-08T05:39:53.693Z,81.66
2022-12-08T05:42:24.617Z,80.99
2022-12-08T05:44:51.824Z,81.18
2022-12-08T05:47:18.658Z,80.68
2022-12-08T05:52:12.062Z,80.72
2022-12-08T05:54:41.960Z,80.96
2022-12-08T05:57:08.945Z,80.98
2022-12-08T05:59:35.655Z,81.50
2022-12-08T06:02:02.587Z,81.96
2022-12-08T06:04:29.397Z,82.02
2022-12-08T06:06:58.186Z,81.41
2022-12-08T06:09:25.308Z,80.58
2022-12-08T06:11:58.109Z,81.28
2022-12-08T06:14:27.719Z,80.99
2022-12-08T06:16:54.524Z,81.06
2022-12-08T06:19:21.356Z,80.75
2022-12-08T06:21:47.985Z,80.49
2022-12-08T06:24:14.877Z,80.47
2022-12-08T06:26:41.880Z,81.30
2022-12-08T06:29:08.724Z,81.12
2022-12-08T06:31:35.817Z,81.22
2022-12-08T06:34:02.721Z,80.73
2022-12-08T06:36:30.436Z,81.35
2022-12-08T06:38:57.987Z,79.93
2022-12-08T06:41:25.976Z,79.93
2022-12-08T06:43:58.403Z,79.99
2022-12-08T06:46:25.421Z,80.50
2022-12-08T06:48:52.251Z,80.98
2022-12-08T06:51:20.937Z,79.65
2022-12-08T06:53:54.483Z,80.12
2022-12-08T06:56:24.023Z,80.27
2022-12-08T06:58:52.977Z,80.76
2022-12-08T07:01:20.114Z,81.06
2022-12-08T07:03:48.269Z,80.71
2022-12-08T07:06:20.710Z,80.92
2022-12-08T07:08:47.545Z,80.98
2022-12-08T07:11:19.767Z,81.82
2022-12-08T07:13:48.612Z,80.67
2022-12-08T07:16:18.702Z,79.89
2022-12-08T07:18:45.576Z,80.07
2022-12-08T07:21:15.036Z,80.67
2022-12-08T07:23:42.402Z,81.10
2022-12-08T07:26:12.416Z,80.60
2022-12-08T07:28:40.978Z,82.09
2022-12-08T07:31:19.656Z,79.75
2022-12-08T07:33:46.910Z,79.86
2022-12-08T07:36:13.984Z,80.38
2022-12-08T07:38:40.719Z,80.22
2022-12-08T07:41:12.523Z,81.27
2022-12-08T07:43:42.946Z,80.83
2022-12-08T07:46:16.530Z,80.99
2022-12-08T07:48:43.784Z,80.90
2022-12-08T07:51:13.959Z,79.39
2022-12-08T07:53:43.430Z,79.80
2022-12-08T07:56:13.653Z,79.81
2022-12-08T07:58:42.224Z,80.61
2022-12-08T08:01:20.282Z,79.41
2022-12-08T08:03:47.229Z,80.02
2022-12-08T08:06:13.872Z,79.11
2022-12-08T08:08:40.672Z,80.87
2022-12-08T08:11:15.768Z,79.97
2022-12-08T08:13:49.852Z,79.87
2022-12-08T08:16:16.879Z,79.84
2022-12-08T08:18:43.866Z,79.05
2022-12-08T08:21:43.749Z,79.66
2022-12-08T08:24:00.887Z,79.91
2022-12-08T08:26:27.686Z,79.73
2022-12-08T08:28:58.216Z,78.96
2022-12-08T08:31:27.271Z,78.77
2022-12-08T08:33:56.421Z,78.91
2022-12-08T08:36:23.313Z,79.31
2022-12-08T08:38:50.105Z,78.72
2022-12-08T08:41:16.839Z,79.25
2022-12-08T08:43:44.147Z,79.58
2022-12-08T08:46:11.828Z,79.51
2022-12-08T08:48:38.699Z,80.00
2022-12-08T08:51:16.732Z,79.52
2022-12-08T08:53:43.937Z,78.91
2022-12-08T08:56:12.296Z,79.10
2022-12-08T08:58:39.212Z,79.71
2022-12-08T09:01:08.496Z,78.66
2022-12-08T09:03:35.359Z,76.83
2022-12-08T09:06:05.034Z,77.84
2022-12-08T09:08:32.183Z,77.10
2022-12-08T09:10:58.946Z,77.23
2022-12-08T09:13:26.078Z,78.07
2022-12-08T09:15:52.999Z,79.12
2022-12-08T09:18:19.923Z,76.74
2022-12-08T09:20:46.593Z,76.82
2022-12-08T09:23:13.316Z,76.18
2022-12-08T09:25:44.779Z,76.39
2022-12-08T09:28:12.023Z,75.44
2022-12-08T09:30:39.741Z,75.69
2022-12-08T09:33:08.326Z,76.73
2022-12-08T09:35:35.011Z,75.56
2022-12-08T09:38:01.702Z,75.46
2022-12-08T09:40:30.201Z,75.38
2022-12-08T09:43:19.838Z,75.14
2022-12-08T09:45:48.711Z,76.42
2022-12-08T09:48:23.377Z,76.96
2022-12-08T09:50:58.418Z,76.23
2022-12-08T09:53:35.323Z,77.07
2022-12-08T09:56:39.101Z,76.88
2022-12-08T09:59:21.127Z,76.97
2022-12-08T10:01:48.187Z,76.23
2022-12-08T10:04:26.111Z,75.99
2022-12-08T10:07:05.086Z,74.87
2022-12-08T10:09:56.629Z,75.33
2022-12-08T10:12:31.545Z,75.87
2022-12-08T10:15:22.541Z,75.06
2022-12-08T10:17:51.243Z,75.10
2022-12-08T10:20:20.443Z,75.64
2022-12-08T10:22:52.411Z,74.55
2022-12-08T10:25:34.187Z,74.49
2022-12-08T10:28:00.986Z,75.01
2022-12-08T10:30:27.764Z,75.20
2022-12-08T10:32:54.826Z,74.92
2022-12-08T10:35:23.966Z,74.18
2022-12-08T10:38:06.601Z,72.75
2022-12-08T10:40:45.410Z,73.62
2022-12-08T10:43:25.568Z,74.93
2022-12-08T10:45:52.804Z,74.95
2022-12-08T10:48:23.146Z,74.04
2022-12-08T10:50:55.020Z,74.92
2022-12-08T10:53:29.492Z,75.58
2022-12-08T10:56:02.181Z,75.53
2022-12-08T10:58:43.816Z,74.63
2022-12-08T11:01:33.719Z,75.10
2022-12-08T11:04:03.307Z,74.94
2022-12-08T11:06:38.448Z,74.76
2022-12-08T11:09:18.069Z,74.98
2022-12-08T11:11:56.284Z,74.52
2022-12-08T11:14:33.503Z,74.79
2022-12-08T11:17:10.490Z,75.64
2022-12-08T11:19:39.640Z,75.31
2022-12-08T11:22:32.572Z,75.25
2022-12-08T11:25:05.982Z,75.47
2022-12-08T11:27:36.323Z,75.87
2022-12-08T11:30:15.157Z,74.85
2022-12-08T11:32:44.895Z,74.77
2022-12-08T11:35:39.204Z,75.17
2022-12-08T11:38:24.058Z,74.60
2022-12-08T11:41:00.112Z,74.94
2022-12-08T11:43:36.071Z,74.62
2022-12-08T11:46:17.829Z,74.97
2022-12-08T11:48:47.561Z,74.93
2022-12-08T11:51:22.756Z,75.02
2022-12-08T11:53:53.472Z,74.69
2022-12-08T11:56:33.625Z,74.03
2022-12-08T11:59:23.345Z,74.28
2022-12-08T12:01:50.485Z,74.80
2022-12-08T12:04:38.416Z,74.29
2022-12-08T12:07:38.046Z,74.96
2022-12-08T12:10:23.241Z,75.26
2022-12-08T12:13:29.895Z,75.26
2022-12-08T12:16:25.664Z,74.39
2022-12-08T12:19:00.919Z,73.84
2022-12-08T12:21:37.059Z,74.07
2022-12-08T12:24:35.572Z,74.39
2022-12-08T12:27:17.903Z,74.94
2022-12-08T12:30:13.152Z,75.44
2022-12-08T12:32:51.891Z,75.23
2022-12-08T12:35:41.770Z,75.42
2022-12-08T12:38:47.731Z,73.77
2022-12-08T12:41:19.729Z,73.34
2022-12-08T12:44:24.166Z,74.90
2022-12-08T12:46:54.031Z,73.42
2022-12-08T12:49:39.360Z,74.74
2022-12-08T12:52:19.002Z,73.14
2022-12-08T12:54:54.046Z,72.63
2022-12-08T12:57:20.628Z,73.41
2022-12-08T12:59:55.514Z,73.27
2022-12-08T13:02:25.659Z,73.87
2022-12-08T13:05:18.851Z,72.37
2022-12-08T13:08:02.705Z,72.17
2022-12-08T13:10:33.359Z,71.66
2022-12-08T13:13:16.772Z,72.01
2022-12-08T13:15:46.988Z,72.76
2022-12-08T13:18:39.862Z,73.12
2022-12-08T13:21:09.475Z,72.89
2022-12-08T13:23:47.302Z,73.77
2022-12-08T13:26:30.685Z,74.83
2022-12-08T13:29:08.800Z,73.91
2022-12-08T13:31:35.496Z,73.84
2022-12-08T13:34:06.979Z,73.82
2022-12-08T13:36:39.334Z,73.44
2022-12-08T13:39:17.609Z,73.07
2022-12-08T13:41:53.494Z,73.03
2022-12-08T13:48:14.148Z,73.36
2022-12-08T13:59:30.870Z,73.99
2022-12-08T14:02:15.859Z,74.37
2022-12-08T14:05:16.941Z,74.66
2022-12-08T14:07:34.217Z,75.06
2022-12-08T14:10:03.732Z,75.26
2022-12-08T14:12:33.620Z,76.07
2022-12-08T14:15:06.829Z,75.89
2022-12-08T14:17:42.944Z,76.24
2022-12-08T14:20:20.321Z,75.47
2022-12-08T14:22:52.691Z,75.04
2022-12-08T14:25:21.280Z,75.72
2022-12-08T14:27:48.526Z,75.37
2022-12-08T14:30:28.575Z,75.73
2022-12-08T14:33:01.212Z,75.19
2022-12-08T14:35:35.639Z,75.64
2022-12-08T14:38:05.449Z,75.10
2022-12-08T14:40:41.806Z,75.50
2022-12-08T14:43:13.578Z,75.74
2022-12-08T14:45:50.839Z,75.22
2022-12-08T14:48:23.423Z,75.71
2022-12-08T14:51:18.914Z,75.52
2022-12-08T14:53:46.590Z,76.31
2022-12-08T14:56:26.859Z,76.04
2022-12-08T14:59:05.269Z,75.89
2022-12-08T15:01:32.733Z,76.04
2022-12-08T15:04:28.151Z,75.91
2022-12-08T15:07:17.100Z,76.04
2022-12-08T15:09:49.459Z,76.12
2022-12-08T15:12:27.413Z,76.37
2022-12-08T15:15:02.308Z,76.65
2022-12-08T15:17:42.153Z,76.76
2022-12-08T15:20:46.004Z,76.87
2022-12-08T15:23:21.491Z,77.26
2022-12-08T15:25:49.563Z,76.95
2022-12-08T15:28:19.461Z,76.59
2022-12-08T15:30:47.702Z,76.52
2022-12-08T15:33:14.778Z,76.60
2022-12-08T15:35:42.065Z,77.20
2022-12-08T15:38:21.433Z,76.32
2022-12-08T15:40:48.639Z,76.68
2022-12-08T15:43:15.395Z,76.81
2022-12-08T15:45:56.289Z,76.42
2022-12-08T15:48:27.529Z,76.53
2022-12-08T15:50:55.047Z,76.88
2022-12-08T15:53:23.964Z,76.70
2022-12-08T15:56:26.455Z,76.60
2022-12-08T15:58:56.549Z,76.80
2022-12-08T16:01:26.680Z,77.19
2022-12-08T16:09:44.668Z,76.58
2022-12-08T16:15:59.734Z,77.33
2022-12-08T16:18:27.698Z,77.62
2022-12-08T16:21:22.885Z,77.09
2022-12-08T16:23:43.606Z,76.33
2022-12-08T16:26:28.541Z,76.41
2022-12-08T16:29:04.812Z,76.15
2022-12-08T16:31:37.754Z,76.44
2022-12-08T16:34:04.422Z,75.05
2022-12-08T16:36:31.252Z,74.86
2022-12-08T16:38:59.662Z,74.98
2022-12-08T16:41:49.174Z,75.26
2022-12-08T16:44:16.237Z,75.42
2022-12-08T16:46:43.252Z,75.16
2022-12-08T16:49:13.084Z,75.15
2022-12-08T16:51:42.729Z,75.25
2022-12-08T16:54:09.785Z,74.68
2022-12-08T16:56:36.854Z,75.74
2022-12-08T16:59:04.122Z,75.50
2022-12-08T17:01:32.031Z,75.20
2022-12-08T17:06:45.871Z,74.43
2022-12-08T17:09:12.582Z,73.52
2022-12-08T17:11:43.274Z,74.38
2022-12-08T17:14:14.835Z,74.65
2022-12-08T17:16:43.143Z,75.49
2022-12-08T17:19:10.400Z,75.62
2022-12-08T17:21:37.351Z,75.93
2022-12-08T17:24:04.997Z,76.33
2022-12-08T17:26:31.950Z,76.51
2022-12-08T17:29:03.664Z,76.12
2022-12-08T17:31:34.720Z,76.01
2022-12-08T17:34:03.428Z,75.87
2022-12-08T17:36:34.201Z,76.55
2022-12-08T17:39:05.742Z,75.77
2022-12-08T17:41:33.347Z,77.36
2022-12-08T17:44:00.344Z,74.62
2022-12-08T17:46:28.984Z,74.38
2022-12-08T17:48:55.946Z,74.28
2022-12-08T17:51:22.931Z,75.16
2022-12-08T17:53:49.787Z,73.89
2022-12-08T17:56:21.710Z,74.92
2022-12-08T17:58:54.281Z,74.79
2022-12-08T18:01:23.935Z,75.29
2022-12-08T18:03:51.766Z,75.42
2022-12-08T18:06:18.730Z,75.69
2022-12-08T18:08:46.173Z,76.12
2022-12-08T18:11:17.230Z,75.62
2022-12-08T18:13:47.102Z,75.55
2022-12-08T18:16:17.595Z,75.78
2022-12-08T18:18:44.390Z,76.32
2022-12-08T18:21:19.908Z,76.13
2022-12-08T18:23:51.919Z,76.96
2022-12-08T18:26:19.812Z,76.86
2022-12-08T18:28:47.156Z,76.67
2022-12-08T18:31:20.283Z,76.13
2022-12-08T18:33:48.580Z,74.01
2022-12-08T18:36:21.546Z,71.20
2022-12-08T18:38:48.680Z,73.14
2022-12-08T18:41:21.137Z,71.33
2022-12-08T18:43:47.960Z,72.21
2022-12-08T18:46:17.786Z,69.90
2022-12-08T18:48:47.650Z,69.88
2022-12-08T18:51:19.718Z,70.92
2022-12-08T18:53:46.706Z,72.23
2022-12-08T18:56:34.989Z,71.92
2022-12-08T18:59:11.819Z,71.28
2022-12-08T19:01:40.094Z,69.67
2022-12-08T19:04:28.040Z,68.87
2022-12-08T19:06:58.218Z,68.74
2022-12-08T19:09:32.175Z,69.23
2022-12-08T19:11:59.158Z,70.85
2022-12-08T19:14:28.577Z,70.93
2022-12-08T19:16:56.091Z,72.58
2022-12-08T19:19:22.827Z,73.52
2022-12-08T19:21:52.672Z,73.33
2022-12-08T19:24:24.174Z,74.32
2022-12-08T19:26:52.466Z,72.57
2022-12-08T19:29:19.849Z,70.97
2022-12-08T19:31:46.734Z,71.30
2022-12-08T19:34:14.481Z,72.31
2022-12-08T19:36:47.434Z,72.84
2022-12-08T19:39:38.404Z,73.61
2022-12-08T19:42:37.885Z,71.46
2022-12-08T19:45:12.249Z,71.00
2022-12-08T19:47:43.523Z,68.96
2022-12-08T19:50:33.084Z,68.18
2022-12-08T19:53:00.789Z,70.27
2022-12-08T19:55:28.435Z,69.43
2022-12-08T19:57:56.996Z,69.15
2022-12-08T20:00:26.482Z,68.49
2022-12-08T20:02:54.544Z,69.98
2022-12-08T20:05:22.014Z,71.25
2022-12-08T20:07:56.019Z,72.67
2022-12-08T20:10:36.131Z,72.36
2022-12-08T20:13:25.329Z,70.86
2022-12-08T20:15:58.137Z,69.85
2022-12-08T20:18:28.123Z,68.25
2022-12-08T20:20:57.210Z,68.79
2022-12-08T20:23:27.573Z,70.15
2022-12-08T20:25:56.624Z,69.17
2022-12-08T20:28:23.995Z,70.51
2022-12-08T20:30:53.363Z,68.49
2022-12-08T20:33:22.560Z,68.58
2022-12-08T20:36:00.234Z,70.46
2022-12-08T20:38:30.256Z,70.41
2022-12-08T20:40:59.291Z,66.96
2022-12-08T20:43:29.964Z,65.27
2022-12-08T20:45:58.114Z,67.94
2022-12-08T20:48:28.106Z,66.59
2022-12-08T20:50:57.906Z,68.02
2022-12-08T20:53:25.455Z,67.63
2022-12-08T20:55:52.648Z,68.62
2022-12-08T20:58:19.457Z,69.00
2022-12-08T21:00:46.431Z,69.78
2022-12-08T21:03:14.286Z,67.33
2022-12-08T21:05:46.984Z,64.32
2022-12-08T21:08:15.456Z,64.82
2022-12-08T21:10:44.113Z,65.41
2022-12-08T21:13:11.301Z,65.09
2022-12-08T21:15:38.489Z,67.24
2022-12-08T21:18:05.378Z,65.83
2022-12-08T21:20:32.193Z,66.49
2022-12-08T21:22:59.094Z,66.84
2022-12-08T21:25:26.080Z,66.75
2022-12-08T21:27:52.914Z,67.74
2022-12-08T21:30:19.677Z,69.28
2022-12-08T21:32:46.896Z,71.59
2022-12-08T21:35:14.017Z,72.53
2022-12-08T21:37:42.962Z,73.12
2022-12-08T21:40:10.775Z,73.91
2022-12-08T21:42:44.052Z,74.84
2022-12-08T21:45:27.726Z,75.58
2022-12-08T21:48:10.321Z,75.14
2022-12-08T21:50:42.020Z,72.90
2022-12-08T21:53:08.751Z,72.39
2022-12-08T21:55:39.481Z,72.18
2022-12-08T21:58:06.315Z,71.05
2022-12-08T22:00:33.430Z,71.36
2022-12-08T22:03:00.509Z,72.01
2022-12-08T22:05:27.660Z,71.76
2022-12-08T22:07:54.720Z,70.37
2022-12-08T22:10:25.347Z,67.39
2022-12-08T22:12:52.057Z,66.76
2022-12-08T22:15:19.220Z,68.05
2022-12-08T22:17:49.472Z,69.19
2022-12-08T22:20:17.706Z,69.91
2022-12-08T22:22:55.258Z,69.23
2022-12-08T22:25:28.409Z,67.94
2022-12-08T22:28:25.692Z,67.94
2022-12-08T22:32:14.652Z,70.40
2022-12-08T22:42:59.558Z,74.85
2022-12-08T22:48:51.424Z,76.95
2022-12-08T22:51:32.708Z,77.07
2022-12-08T23:02:40.004Z,79.63
2022-12-08T23:05:36.306Z,79.51
2022-12-08T23:09:43.422Z,79.97
2022-12-08T23:11:15.471Z,80.39
2022-12-08T23:13:53.304Z,80.06
2022-12-08T23:16:29.563Z,77.92
2022-12-08T23:18:59.190Z,78.28
2022-12-08T23:21:25.974Z,78.56
2022-12-08T23:23:52.589Z,79.01
2022-12-08T23:26:20.984Z,80.16
2022-12-08T23:28:52.310Z,80.49
2022-12-08T23:31:20.204Z,80.80
2022-12-08T23:33:50.029Z,80.97
2022-12-08T23:36:21.086Z,81.46
2022-12-08T23:38:48.576Z,81.41
2022-12-08T23:41:16.293Z,81.25
2022-12-08T23:43:51.354Z,79.23
2022-12-08T23:46:21.216Z,79.01
2022-12-08T23:48:48.548Z,79.03
2022-12-08T23:51:15.980Z,79.05
2022-12-08T23:53:43.283Z,79.28
2022-12-08T23:56:13.530Z,79.35
2022-12-08T23:58:43.765Z,80.72
